createdAt,value
2019-01-14T00:01:06.642Z,18.60
2019-01-14T00:03:36.226Z,14.60
2019-01-14T00:06:10.077Z,15.43
2019-01-14T00:08:37.190Z,21.40
2019-01-14T00:11:06.854Z,21.90
2019-01-14T00:13:36.467Z,17.17
2019-01-14T00:16:06.125Z,20.27
2019-01-14T00:18:35.709Z,20.13
2019-01-14T00:21:05.495Z,12.63
2019-01-14T00:23:35.083Z,11.97
2019-01-14T00:26:04.859Z,17.33
2019-01-14T00:28:34.447Z,15.47
2019-01-14T00:31:04.087Z,17.63
2019-01-14T00:33:33.691Z,20.07
2019-01-14T00:36:03.297Z,13.43
2019-01-14T00:38:32.905Z,21.83
2019-01-14T00:41:02.515Z,21.17
2019-01-14T00:43:32.106Z,19.23
2019-01-14T00:46:01.690Z,19.10
2019-01-14T00:48:31.295Z,8.33
2019-01-14T00:51:00.874Z,3.27
2019-01-14T00:53:30.478Z,4.87
2019-01-14T00:56:00.074Z,5.20
2019-01-14T00:58:29.658Z,5.50
2019-01-14T01:00:59.245Z,2.57
2019-01-14T01:03:28.842Z,3.80
2019-01-14T01:05:58.423Z,6.07
2019-01-14T01:08:28.019Z,6.77
2019-01-14T01:10:57.598Z,7.57
2019-01-14T01:13:27.190Z,8.50
2019-01-14T01:15:56.784Z,10.10
2019-01-14T01:18:26.458Z,13.83
2019-01-14T01:20:56.224Z,10.17
2019-01-14T01:23:25.831Z,10.70
2019-01-14T01:25:55.420Z,4.90
2019-01-14T01:28:25.018Z,10.53
2019-01-14T01:30:54.619Z,8.23
2019-01-14T01:33:24.199Z,7.63
2019-01-14T01:35:53.794Z,13.87
2019-01-14T01:38:23.382Z,9.57
2019-01-14T01:40:52.996Z,15.57
2019-01-14T01:43:22.588Z,16.53
2019-01-14T01:45:52.190Z,10.63
2019-01-14T01:48:21.785Z,17.10
2019-01-14T01:50:51.382Z,20.90
2019-01-14T01:53:20.975Z,18.30
2019-01-14T01:55:50.578Z,21.40
2019-01-14T01:58:20.158Z,21.53
2019-01-14T02:00:49.998Z,21.20
2019-01-14T02:03:19.603Z,17.63
2019-01-14T02:05:49.210Z,15.97
2019-01-14T02:08:18.812Z,19.90
2019-01-14T02:10:48.416Z,20.37
2019-01-14T02:13:18.006Z,21.00
2019-01-14T02:15:47.598Z,17.60
2019-01-14T02:18:18.177Z,12.83
2019-01-14T02:20:47.792Z,31.13
2019-01-14T02:23:18.458Z,21.43
2019-01-14T02:25:48.061Z,17.07
2019-01-14T02:28:17.658Z,21.87
2019-01-14T02:30:47.250Z,18.33
2019-01-14T02:33:16.862Z,25.77
2019-01-14T02:35:46.445Z,21.33
2019-01-14T02:38:16.040Z,14.97
2019-01-14T02:40:45.629Z,21.93
2019-01-14T02:43:15.227Z,23.07
2019-01-14T02:45:44.824Z,22.63
2019-01-14T02:48:14.427Z,20.90
2019-01-14T02:50:45.086Z,18.13
2019-01-14T02:53:14.692Z,21.33
2019-01-14T02:55:44.282Z,17.70
2019-01-14T02:58:13.886Z,21.00
2019-01-14T03:00:43.479Z,17.57
2019-01-14T03:03:13.092Z,12.40
2019-01-14T03:05:42.690Z,17.97
2019-01-14T03:08:12.286Z,19.07
2019-01-14T03:10:41.887Z,23.13
2019-01-14T03:13:11.498Z,21.13
2019-01-14T03:15:41.096Z,22.77
2019-01-14T03:18:10.688Z,21.37
2019-01-14T03:20:40.292Z,14.20
2019-01-14T03:23:09.876Z,20.67
2019-01-14T03:25:39.487Z,16.37
2019-01-14T03:28:09.068Z,15.77
2019-01-14T03:30:38.671Z,17.07
2019-01-14T03:33:08.270Z,18.73
2019-01-14T03:35:38.942Z,15.53
2019-01-14T03:38:08.534Z,19.13
2019-01-14T03:40:38.173Z,17.80
2019-01-14T03:43:07.819Z,16.13
2019-01-14T03:45:37.422Z,18.17
2019-01-14T03:48:07.025Z,14.53
2019-01-14T03:50:36.628Z,20.63
2019-01-14T03:53:06.254Z,8.83
2019-01-14T03:55:35.880Z,17.07
2019-01-14T03:58:05.524Z,19.00
2019-01-14T04:00:35.153Z,18.60
2019-01-14T04:03:04.752Z,18.53
2019-01-14T04:05:34.349Z,17.77
2019-01-14T04:08:03.966Z,23.30
2019-01-14T04:10:33.531Z,15.97
2019-01-14T04:13:03.143Z,22.70
2019-01-14T04:15:32.721Z,17.37
2019-01-14T04:18:02.331Z,21.97
2019-01-14T04:20:31.918Z,19.73
2019-01-14T04:23:01.558Z,12.60
2019-01-14T04:25:31.187Z,17.23
2019-01-14T04:28:00.788Z,19.50
2019-01-14T04:30:30.382Z,15.90
2019-01-14T04:32:59.991Z,15.63
2019-01-14T04:35:29.584Z,15.33
2019-01-14T04:37:59.194Z,14.83
2019-01-14T04:40:28.849Z,15.57
2019-01-14T04:42:58.456Z,11.43
2019-01-14T04:45:28.041Z,9.80
2019-01-14T04:47:57.651Z,12.10
2019-01-14T04:50:27.249Z,11.57
2019-01-14T04:52:56.852Z,7.30
2019-01-14T04:55:26.435Z,6.97
2019-01-14T04:57:56.041Z,9.13
2019-01-14T05:00:25.919Z,11.53
2019-01-14T05:02:55.636Z,8.60
2019-01-14T05:05:25.230Z,6.07
2019-01-14T05:07:54.811Z,7.17
2019-01-14T05:10:24.415Z,8.27
2019-01-14T05:12:53.991Z,9.60
2019-01-14T05:15:23.595Z,6.67
2019-01-14T05:17:53.181Z,4.97
2019-01-14T05:20:26.386Z,6.63
2019-01-14T05:22:55.977Z,8.37
2019-01-14T05:25:26.559Z,7.03
2019-01-14T05:27:56.197Z,9.80
2019-01-14T05:30:25.805Z,6.43
2019-01-14T05:32:55.389Z,5.80
2019-01-14T05:35:25.009Z,9.57
2019-01-14T05:37:54.590Z,5.23
2019-01-14T05:40:25.418Z,9.17
2019-01-14T05:42:55.013Z,10.73
2019-01-14T05:45:24.612Z,7.10
2019-01-14T05:47:54.189Z,5.37
2019-01-14T05:50:23.784Z,8.97
2019-01-14T05:52:53.370Z,9.53
2019-01-14T05:55:22.997Z,9.67
2019-01-14T05:57:52.590Z,6.77
2019-01-14T06:00:29.131Z,11.83
2019-01-14T06:02:58.721Z,13.00
2019-01-14T06:05:28.328Z,8.40
2019-01-14T06:07:57.926Z,7.30
2019-01-14T06:10:27.516Z,10.87
2019-01-14T06:12:57.131Z,16.37
2019-01-14T06:15:26.702Z,13.13
2019-01-14T06:17:56.316Z,15.10
2019-01-14T06:20:27.546Z,13.33
2019-01-14T06:22:58.206Z,10.13
2019-01-14T06:25:27.814Z,9.77
2019-01-14T06:27:57.404Z,13.83
2019-01-14T06:30:29.127Z,10.83
2019-01-14T06:32:58.724Z,12.23
2019-01-14T06:35:28.324Z,8.30
2019-01-14T06:37:57.996Z,12.80
2019-01-14T06:40:27.582Z,10.37
2019-01-14T06:42:57.183Z,12.20
2019-01-14T06:45:26.787Z,10.47
2019-01-14T06:47:56.414Z,10.20
2019-01-14T06:50:25.997Z,20.10
2019-01-14T06:52:55.594Z,12.83
2019-01-14T06:55:25.191Z,14.13
2019-01-14T06:57:54.791Z,7.30
2019-01-14T07:00:25.820Z,12.67
2019-01-14T07:02:55.409Z,19.93
2019-01-14T07:05:25.014Z,10.70
2019-01-14T07:07:59.474Z,13.40
2019-01-14T07:10:27.155Z,10.17
2019-01-14T07:12:58.371Z,9.43
2019-01-14T07:15:27.967Z,12.97
2019-01-14T07:17:57.550Z,7.90
2019-01-14T07:20:27.221Z,9.07
2019-01-14T07:22:56.811Z,12.33
2019-01-14T07:25:27.395Z,11.87
2019-01-14T07:27:57.000Z,11.00
2019-01-14T07:30:26.604Z,10.40
2019-01-14T07:32:56.195Z,14.97
2019-01-14T07:35:25.791Z,12.87
2019-01-14T07:37:55.443Z,13.97
2019-01-14T07:40:25.040Z,10.37
2019-01-14T07:42:54.614Z,9.50
2019-01-14T07:45:24.221Z,8.43
2019-01-14T07:47:53.802Z,10.40
2019-01-14T07:50:23.404Z,8.10
2019-01-14T07:52:52.992Z,7.27
2019-01-14T07:55:22.593Z,10.47
2019-01-14T07:57:52.187Z,6.30
2019-01-14T08:00:23.719Z,8.53
2019-01-14T08:02:53.315Z,6.03
2019-01-14T08:05:22.907Z,5.70
2019-01-14T08:07:52.497Z,6.90
2019-01-14T08:10:22.105Z,6.57
2019-01-14T08:12:51.686Z,9.40
2019-01-14T08:15:21.295Z,8.17
2019-01-14T08:17:50.933Z,8.17
2019-01-14T08:20:32.921Z,6.67
2019-01-14T08:23:04.640Z,8.60
2019-01-14T08:25:34.251Z,5.03
2019-01-14T08:28:03.833Z,7.77
2019-01-14T08:30:33.433Z,12.87
2019-01-14T08:33:03.031Z,8.80
2019-01-14T08:35:32.619Z,9.87
2019-01-14T08:38:02.215Z,9.50
2019-01-14T08:40:31.803Z,7.67
2019-01-14T08:43:01.414Z,10.27
2019-01-14T08:45:30.998Z,6.63
2019-01-14T08:48:00.595Z,6.80
2019-01-14T08:50:30.176Z,11.63
2019-01-14T08:52:59.787Z,7.93
2019-01-14T08:55:29.387Z,10.47
2019-01-14T08:57:58.981Z,10.33
2019-01-14T09:00:28.566Z,7.50
2019-01-14T09:02:58.175Z,11.13
2019-01-14T09:05:27.753Z,5.73
2019-01-14T09:07:57.360Z,7.00
2019-01-14T09:10:27.016Z,6.77
2019-01-14T09:12:56.621Z,7.50
2019-01-14T09:15:26.198Z,7.60
2019-01-14T09:18:02.359Z,8.70
2019-01-14T09:20:27.095Z,4.30
2019-01-14T09:22:56.699Z,5.67
2019-01-14T09:25:26.306Z,7.90
2019-01-14T09:27:55.894Z,10.83
2019-01-14T09:30:25.495Z,7.70
2019-01-14T09:32:55.077Z,8.27
2019-01-14T09:35:24.670Z,7.23
2019-01-14T09:37:54.252Z,8.43
2019-01-14T09:40:24.320Z,7.67
2019-01-14T09:42:53.904Z,7.63
2019-01-14T09:45:23.504Z,9.70
2019-01-14T09:47:53.096Z,13.37
2019-01-14T09:50:22.705Z,12.03
2019-01-14T09:52:52.297Z,8.97
2019-01-14T09:55:21.914Z,10.87
2019-01-14T09:57:51.488Z,9.93
2019-01-14T10:00:21.092Z,7.60
2019-01-14T10:02:55.418Z,8.73
2019-01-14T10:05:22.000Z,9.37
2019-01-14T10:07:51.635Z,9.33
2019-01-14T10:10:21.306Z,8.53
2019-01-14T10:12:50.886Z,10.17
2019-01-14T10:15:22.327Z,11.27
2019-01-14T10:17:53.555Z,6.90
2019-01-14T10:20:23.160Z,9.77
2019-01-14T10:22:52.747Z,10.87
2019-01-14T10:25:23.522Z,11.27
2019-01-14T10:27:53.114Z,7.40
2019-01-14T10:30:22.712Z,7.50
2019-01-14T10:32:52.294Z,8.40
2019-01-14T10:35:21.890Z,9.67
2019-01-14T10:37:51.488Z,6.73
2019-01-14T10:40:21.080Z,6.40
2019-01-14T10:42:50.676Z,9.30
2019-01-14T10:45:22.098Z,11.27
2019-01-14T10:47:51.698Z,10.60
2019-01-14T10:50:21.278Z,8.83
2019-01-14T10:52:51.842Z,11.93
2019-01-14T10:55:21.439Z,15.27
2019-01-14T10:57:51.030Z,6.03
2019-01-14T11:00:23.894Z,9.77
2019-01-14T11:02:53.715Z,12.27
2019-01-14T11:05:26.989Z,9.50
2019-01-14T11:07:57.545Z,12.50
2019-01-14T11:10:27.132Z,10.83
2019-01-14T11:12:56.766Z,9.00
2019-01-14T11:15:26.349Z,13.27
2019-01-14T11:17:55.942Z,8.63
2019-01-14T11:20:29.581Z,9.00
2019-01-14T11:22:59.450Z,11.53
2019-01-14T11:25:29.047Z,7.50
2019-01-14T11:27:58.636Z,6.17
2019-01-14T11:30:29.455Z,4.33
2019-01-14T11:32:59.051Z,4.53
2019-01-14T11:35:28.646Z,4.77
2019-01-14T11:37:58.255Z,13.13
2019-01-14T11:40:33.619Z,6.10
2019-01-14T11:43:03.215Z,6.53
2019-01-14T11:45:32.801Z,6.77
2019-01-14T11:48:02.397Z,5.90
2019-01-14T11:50:31.999Z,5.03
2019-01-14T11:53:01.603Z,5.40
2019-01-14T11:55:31.198Z,4.13
2019-01-14T11:58:00.785Z,6.80
2019-01-14T12:00:36.557Z,4.77
2019-01-14T12:03:01.654Z,2.77
2019-01-14T12:05:31.255Z,3.87
2019-01-14T12:08:00.842Z,4.43
2019-01-14T12:10:30.438Z,8.03
2019-01-14T12:13:00.029Z,5.97
2019-01-14T12:15:29.615Z,3.63
2019-01-14T12:17:59.195Z,4.63
2019-01-14T12:20:28.792Z,5.07
2019-01-14T12:22:58.378Z,9.03
2019-01-14T12:25:27.966Z,5.87
2019-01-14T12:27:57.551Z,5.87
2019-01-14T12:30:32.126Z,5.60
2019-01-14T12:33:01.713Z,4.10
2019-01-14T12:35:31.325Z,10.57
2019-01-14T12:38:00.916Z,5.00
2019-01-14T12:40:30.510Z,5.93
2019-01-14T12:43:01.698Z,6.67
2019-01-14T12:45:31.302Z,7.40
2019-01-14T12:48:00.894Z,8.93
2019-01-14T12:50:30.515Z,11.27
2019-01-14T12:53:00.115Z,5.80
2019-01-14T12:55:29.699Z,6.60
2019-01-14T12:57:59.302Z,10.37
2019-01-14T13:00:30.385Z,6.77
2019-01-14T13:02:59.993Z,5.43
2019-01-14T13:05:29.580Z,6.37
2019-01-14T13:07:59.179Z,4.77
2019-01-14T13:10:28.762Z,7.47
2019-01-14T13:12:58.370Z,12.63
2019-01-14T13:15:27.962Z,6.73
2019-01-14T13:17:57.556Z,10.33
2019-01-14T13:20:27.139Z,10.57
2019-01-14T13:22:56.740Z,10.90
2019-01-14T13:25:26.328Z,7.13
2019-01-14T13:27:55.976Z,7.83
2019-01-14T13:30:27.508Z,5.27
2019-01-14T13:32:57.370Z,7.87
2019-01-14T13:35:26.970Z,10.83
2019-01-14T13:37:56.563Z,5.07
2019-01-14T13:40:26.146Z,3.87
2019-01-14T13:42:55.752Z,4.90
2019-01-14T13:45:25.376Z,4.03
2019-01-14T13:47:55.024Z,7.43
2019-01-14T13:50:25.860Z,4.60
2019-01-14T13:52:55.447Z,4.60
2019-01-14T13:55:25.108Z,3.97
2019-01-14T13:57:54.686Z,3.03
2019-01-14T14:00:25.326Z,6.97
2019-01-14T14:02:54.922Z,3.53
2019-01-14T14:05:24.526Z,7.07
2019-01-14T14:07:54.115Z,8.33
2019-01-14T14:10:25.554Z,4.43
2019-01-14T14:12:55.145Z,6.50
2019-01-14T14:15:24.739Z,3.10
2019-01-14T14:17:54.340Z,10.03
2019-01-14T14:20:23.942Z,3.03
2019-01-14T14:22:53.522Z,6.00
2019-01-14T14:25:23.118Z,2.47
2019-01-14T14:27:52.710Z,6.03
2019-01-14T14:30:24.718Z,7.40
2019-01-14T14:32:54.314Z,4.87
2019-01-14T14:35:23.924Z,5.20
2019-01-14T14:38:00.639Z,3.27
2019-01-14T14:40:24.812Z,4.83
2019-01-14T14:42:54.412Z,4.83
2019-01-14T14:45:24.002Z,9.43
2019-01-14T14:47:54.674Z,5.87
2019-01-14T14:50:24.255Z,5.67
2019-01-14T14:52:53.855Z,5.20
2019-01-14T14:55:23.439Z,4.57
2019-01-14T14:57:53.031Z,5.23
2019-01-14T15:00:22.997Z,7.50
2019-01-14T15:02:52.588Z,5.07
2019-01-14T15:05:22.180Z,5.50
2019-01-14T15:07:51.793Z,3.30
2019-01-14T15:10:21.639Z,5.60
2019-01-14T15:12:51.242Z,6.80
2019-01-14T15:15:22.124Z,6.53
2019-01-14T15:17:51.776Z,9.03
2019-01-14T15:20:22.195Z,8.30
2019-01-14T15:22:51.792Z,4.10
2019-01-14T15:25:21.375Z,4.37
2019-01-14T15:27:50.965Z,8.57
2019-01-14T15:30:22.795Z,8.80
2019-01-14T15:32:52.389Z,8.67
2019-01-14T15:35:22.139Z,6.97
2019-01-14T15:37:51.746Z,3.30
2019-01-14T15:40:21.467Z,4.20
2019-01-14T15:42:52.044Z,3.17
2019-01-14T15:45:23.386Z,4.47
2019-01-14T15:47:52.982Z,7.90
2019-01-14T15:50:22.569Z,2.20
2019-01-14T15:52:52.159Z,6.00
2019-01-14T15:55:23.897Z,5.83
2019-01-14T15:57:53.495Z,6.23
2019-01-14T16:00:23.091Z,10.70
2019-01-14T16:02:52.703Z,5.40
2019-01-14T16:05:22.283Z,3.67
2019-01-14T16:07:51.881Z,4.70
2019-01-14T16:10:23.584Z,3.33
2019-01-14T16:12:53.235Z,5.97
2019-01-14T16:15:22.832Z,6.10
2019-01-14T16:17:52.416Z,4.47
2019-01-14T16:20:22.751Z,5.60
2019-01-14T16:22:52.338Z,8.23
2019-01-14T16:25:21.944Z,8.47
2019-01-14T16:27:51.514Z,4.70
2019-01-14T16:30:23.049Z,6.87
2019-01-14T16:32:52.636Z,6.80
2019-01-14T16:35:22.241Z,3.60
2019-01-14T16:37:52.889Z,7.13
2019-01-14T16:40:22.483Z,6.63
2019-01-14T16:42:52.070Z,6.10
2019-01-14T16:45:22.406Z,2.00
2019-01-14T16:47:52.014Z,4.40
2019-01-14T16:50:21.609Z,4.53
2019-01-14T16:52:51.194Z,4.77
2019-01-14T16:55:22.434Z,8.27
2019-01-14T16:57:52.019Z,7.60
2019-01-14T17:00:21.627Z,10.33
2019-01-14T17:02:51.211Z,11.33
2019-01-14T17:05:20.814Z,13.27
2019-01-14T17:07:50.413Z,11.03
2019-01-14T17:10:25.123Z,3.60
2019-01-14T17:12:51.304Z,8.60
2019-01-14T17:15:20.961Z,6.53
2019-01-14T17:17:50.578Z,8.07
2019-01-14T17:20:20.456Z,12.73
2019-01-14T17:22:50.052Z,9.07
2019-01-14T17:25:19.717Z,7.67
2019-01-14T17:28:00.534Z,3.87
2019-01-14T17:30:30.119Z,9.27
2019-01-14T17:32:59.714Z,10.93
2019-01-14T17:35:29.321Z,9.27
2019-01-14T17:37:58.908Z,6.60
2019-01-14T17:40:32.429Z,9.60
2019-01-14T17:42:59.791Z,5.53
2019-01-14T17:45:29.386Z,8.80
2019-01-14T17:47:58.987Z,10.23
2019-01-14T17:50:28.683Z,5.07
2019-01-14T17:52:58.354Z,6.70
2019-01-14T17:55:27.954Z,10.07
2019-01-14T17:57:57.558Z,8.47
2019-01-14T18:00:27.140Z,9.17
2019-01-14T18:02:56.745Z,10.53
2019-01-14T18:05:26.334Z,5.77
2019-01-14T18:07:55.925Z,7.50
2019-01-14T18:10:25.514Z,15.93
2019-01-14T18:12:55.123Z,9.37
2019-01-14T18:15:24.708Z,12.50
2019-01-14T18:17:54.311Z,13.27
2019-01-14T18:20:23.920Z,8.33
2019-01-14T18:22:53.503Z,8.63
2019-01-14T18:25:23.103Z,7.73
2019-01-14T18:27:52.701Z,9.60
2019-01-14T18:30:22.292Z,9.90
2019-01-14T18:32:51.883Z,6.20
2019-01-14T18:35:21.486Z,8.30
2019-01-14T18:37:51.071Z,11.00
2019-01-14T18:40:20.675Z,9.33
2019-01-14T18:42:50.263Z,12.37
2019-01-14T18:45:19.869Z,15.00
2019-01-14T18:47:49.491Z,9.03
2019-01-14T18:50:20.514Z,13.97
2019-01-14T18:52:50.120Z,10.03
2019-01-14T18:55:20.799Z,8.40
2019-01-14T18:57:50.385Z,11.47
2019-01-14T19:00:21.557Z,7.97
2019-01-14T19:02:52.111Z,10.20
2019-01-14T19:05:21.719Z,5.47
2019-01-14T19:07:51.310Z,9.17
2019-01-14T19:10:20.910Z,9.57
2019-01-14T19:12:50.523Z,10.93
2019-01-14T19:15:20.175Z,6.60
2019-01-14T19:17:49.783Z,10.53
2019-01-14T19:20:22.171Z,7.03
2019-01-14T19:22:52.499Z,7.00
2019-01-14T19:25:22.091Z,9.17
2019-01-14T19:27:51.691Z,9.53
2019-01-14T19:30:21.648Z,6.77
2019-01-14T19:32:51.243Z,7.83
2019-01-14T19:35:20.832Z,8.20
2019-01-14T19:37:50.424Z,7.87
2019-01-14T19:40:20.082Z,13.77
2019-01-14T19:42:49.679Z,7.30
2019-01-14T19:45:19.699Z,6.80
2019-01-14T19:47:49.296Z,10.40
2019-01-14T19:50:21.404Z,7.93
2019-01-14T19:52:51.967Z,8.50
2019-01-14T19:55:21.559Z,13.33
2019-01-14T19:57:51.159Z,8.57
2019-01-14T20:00:25.657Z,9.00
2019-01-14T20:02:55.251Z,8.03
2019-01-14T20:05:24.838Z,8.17
2019-01-14T20:07:55.003Z,8.27
2019-01-14T20:10:24.597Z,13.83
2019-01-14T20:12:54.209Z,13.40
2019-01-14T20:15:23.815Z,8.33
2019-01-14T20:17:53.422Z,7.07
2019-01-14T20:20:23.027Z,11.50
2019-01-14T20:22:52.616Z,8.43
2019-01-14T20:25:23.058Z,7.00
2019-01-14T20:27:52.663Z,14.33
2019-01-14T20:30:22.712Z,10.13
2019-01-14T20:32:52.302Z,8.17
2019-01-14T20:35:21.907Z,7.90
2019-01-14T20:37:51.487Z,7.87
2019-01-14T20:40:21.085Z,9.20
2019-01-14T20:42:51.757Z,10.73
2019-01-14T20:45:21.347Z,6.90
2019-01-14T20:47:50.941Z,13.07
2019-01-14T20:50:20.816Z,7.90
2019-01-14T20:52:50.400Z,6.30
2019-01-14T20:55:20.007Z,8.73
2019-01-14T20:57:49.677Z,10.80
2019-01-14T21:00:21.847Z,8.90
2019-01-14T21:02:51.447Z,7.87
2019-01-14T21:05:21.314Z,13.20
2019-01-14T21:07:50.908Z,8.47
2019-01-14T21:10:20.516Z,6.93
2019-01-14T21:12:50.110Z,8.93
2019-01-14T21:15:19.705Z,10.80
2019-01-14T21:17:49.330Z,10.53
2019-01-14T21:20:21.153Z,7.17
2019-01-14T21:22:51.028Z,12.27
2019-01-14T21:25:20.615Z,6.90
2019-01-14T21:27:50.214Z,7.27
2019-01-14T21:30:21.740Z,10.33
2019-01-14T21:32:51.342Z,11.23
2019-01-14T21:35:20.927Z,8.00
2019-01-14T21:37:51.169Z,8.13
2019-01-14T21:40:20.747Z,8.87
2019-01-14T21:42:50.387Z,17.93
2019-01-14T21:45:21.772Z,9.73
2019-01-14T21:47:51.388Z,11.47
2019-01-14T21:50:21.317Z,8.73
2019-01-14T21:52:50.922Z,9.57
2019-01-14T21:55:21.834Z,5.87
2019-01-14T21:57:51.461Z,7.67
2019-01-14T22:00:22.474Z,11.30
2019-01-14T22:02:52.078Z,10.20
2019-01-14T22:05:21.672Z,13.87
2019-01-14T22:07:51.275Z,10.57
2019-01-14T22:10:22.926Z,13.53
2019-01-14T22:12:52.599Z,10.90
2019-01-14T22:15:22.220Z,14.37
2019-01-14T22:17:51.828Z,14.03
2019-01-14T22:20:23.559Z,9.70
2019-01-14T22:22:53.184Z,9.33
2019-01-14T22:25:22.774Z,10.67
2019-01-14T22:27:52.366Z,12.50
2019-01-14T22:30:30.311Z,12.63
2019-01-14T22:32:59.930Z,14.83
2019-01-14T22:35:29.518Z,10.43
2019-01-14T22:37:59.130Z,11.83
2019-01-14T22:40:28.735Z,13.20
2019-01-14T22:42:58.326Z,17.07
2019-01-14T22:45:27.938Z,14.97
2019-01-14T22:47:57.553Z,11.97
2019-01-14T22:50:27.154Z,9.73
2019-01-14T22:52:56.737Z,13.33
2019-01-14T22:55:26.340Z,15.03
2019-01-14T22:57:55.926Z,19.17
2019-01-14T23:00:52.218Z,17.37
2019-01-14T23:03:21.820Z,12.13
2019-01-14T23:05:51.501Z,17.20
2019-01-14T23:08:21.122Z,14.10
2019-01-14T23:10:51.695Z,16.50
2019-01-14T23:13:21.294Z,13.37
2019-01-14T23:15:50.899Z,13.40
2019-01-14T23:18:20.487Z,11.50
2019-01-14T23:20:50.093Z,15.03
2019-01-14T23:23:19.687Z,16.90
2019-01-14T23:25:49.315Z,10.93
2019-01-14T23:28:18.919Z,12.10
2019-01-14T23:30:48.518Z,14.50
2019-01-14T23:33:18.115Z,16.60
2019-01-14T23:35:47.711Z,11.67
2019-01-14T23:38:17.317Z,16.13
2019-01-14T23:40:46.931Z,13.53
2019-01-14T23:43:16.583Z,18.37
2019-01-14T23:45:46.197Z,18.60
2019-01-14T23:48:15.794Z,13.33
2019-01-14T23:50:45.399Z,15.17
2019-01-14T23:53:15.074Z,16.83
2019-01-14T23:55:44.775Z,16.83
2019-01-14T23:58:14.386Z,12.93
